sensor_id;sensor_type;location;lat;lon;timestamp;P1;durP1;ratioP1;P2;durP2;ratioP2
42944;SDS011;28584;42.636;23.294;2022-09-13T00:01:30;8.18;;;6.65;;
42944;SDS011;28584;42.636;23.294;2022-09-13T00:03:55;8.82;;;6.43;;
42944;SDS011;28584;42.636;23.294;2022-09-13T00:06:21;7.47;;;6.55;;
42944;SDS011;28584;42.636;23.294;2022-09-13T00:08:47;7.65;;;6.85;;
42944;SDS011;28584;42.636;23.294;2022-09-13T00:11:17;10.48;;;7.07;;
42944;SDS011;28584;42.636;23.294;2022-09-13T00:13:44;11.43;;;7.18;;
42944;SDS011;28584;42.636;23.294;2022-09-13T00:16:11;8.38;;;6.63;;
42944;SDS011;28584;42.636;23.294;2022-09-13T00:18:38;8.35;;;6.45;;
42944;SDS011;28584;42.636;23.294;2022-09-13T00:21:05;10.57;;;6.40;;
42944;SDS011;28584;42.636;23.294;2022-09-13T00:23:33;8.13;;;6.47;;
42944;SDS011;28584;42.636;23.294;2022-09-13T00:26:07;7.20;;;6.00;;
42944;SDS011;28584;42.636;23.294;2022-09-13T00:28:35;12.30;;;7.22;;
42944;SDS011;28584;42.636;23.294;2022-09-13T00:31:01;7.90;;;6.35;;
42944;SDS011;28584;42.636;23.294;2022-09-13T00:33:28;9.75;;;6.50;;
42944;SDS011;28584;42.636;23.294;2022-09-13T00:35:54;8.18;;;6.50;;
42944;SDS011;28584;42.636;23.294;2022-09-13T00:38:20;10.07;;;6.85;;
42944;SDS011;28584;42.636;23.294;2022-09-13T00:40:46;7.68;;;6.03;;
42944;SDS011;28584;42.636;23.294;2022-09-13T00:43:15;8.98;;;6.28;;
42944;SDS011;28584;42.636;23.294;2022-09-13T00:45:44;7.65;;;6.07;;
42944;SDS011;28584;42.636;23.294;2022-09-13T00:48:15;8.27;;;6.40;;
42944;SDS011;28584;42.636;23.294;2022-09-13T00:50:47;7.05;;;6.03;;
42944;SDS011;28584;42.636;23.294;2022-09-13T00:53:24;10.15;;;7.00;;
42944;SDS011;28584;42.636;23.294;2022-09-13T00:59:00;10.85;;;6.65;;
42944;SDS011;28584;42.636;23.294;2022-09-13T01:01:32;9.07;;;6.63;;
42944;SDS011;28584;42.636;23.294;2022-09-13T01:04:04;6.97;;;5.85;;
42944;SDS011;28584;42.636;23.294;2022-09-13T01:06:30;7.97;;;6.25;;
42944;SDS011;28584;42.636;23.294;2022-09-13T01:08:59;9.52;;;6.35;;
42944;SDS011;28584;42.636;23.294;2022-09-13T01:11:36;7.18;;;6.45;;
42944;SDS011;28584;42.636;23.294;2022-09-13T01:14:11;8.80;;;6.00;;
42944;SDS011;28584;42.636;23.294;2022-09-13T01:16:37;9.20;;;6.18;;
42944;SDS011;28584;42.636;23.294;2022-09-13T01:19:03;7.88;;;6.05;;
42944;SDS011;28584;42.636;23.294;2022-09-13T01:24:37;7.05;;;5.80;;
42944;SDS011;28584;42.636;23.294;2022-09-13T01:30:19;6.13;;;5.38;;
42944;SDS011;28584;42.636;23.294;2022-09-13T01:41:56;9.93;;;6.53;;
42944;SDS011;28584;42.636;23.294;2022-09-13T01:49:21;7.20;;;5.95;;
42944;SDS011;28584;42.636;23.294;2022-09-13T01:51:59;7.78;;;6.05;;
42944;SDS011;28584;42.636;23.294;2022-09-13T01:57:16;7.00;;;6.30;;
42944;SDS011;28584;42.636;23.294;2022-09-13T02:00:14;6.55;;;5.85;;
42944;SDS011;28584;42.636;23.294;2022-09-13T02:02:52;6.97;;;5.68;;
42944;SDS011;28584;42.636;23.294;2022-09-13T02:05:36;7.40;;;5.75;;
42944;SDS011;28584;42.636;23.294;2022-09-13T02:11:26;6.32;;;5.45;;
42944;SDS011;28584;42.636;23.294;2022-09-13T02:13:56;9.30;;;5.22;;
42944;SDS011;28584;42.636;23.294;2022-09-13T02:16:31;8.13;;;5.20;;
42944;SDS011;28584;42.636;23.294;2022-09-13T02:19:06;7.00;;;5.60;;
42944;SDS011;28584;42.636;23.294;2022-09-13T02:21:38;8.15;;;5.15;;
42944;SDS011;28584;42.636;23.294;2022-09-13T02:24:18;7.18;;;5.32;;
42944;SDS011;28584;42.636;23.294;2022-09-13T02:26:49;5.40;;;4.90;;
42944;SDS011;28584;42.636;23.294;2022-09-13T02:29:17;7.60;;;6.05;;
42944;SDS011;28584;42.636;23.294;2022-09-13T02:34:52;8.38;;;6.43;;
42944;SDS011;28584;42.636;23.294;2022-09-13T02:37:19;6.22;;;5.32;;
42944;SDS011;28584;42.636;23.294;2022-09-13T02:39:52;7.30;;;6.60;;
42944;SDS011;28584;42.636;23.294;2022-09-13T02:45:24;7.32;;;5.68;;
42944;SDS011;28584;42.636;23.294;2022-09-13T02:47:57;6.15;;;5.18;;
42944;SDS011;28584;42.636;23.294;2022-09-13T02:50:28;6.15;;;4.93;;
42944;SDS011;28584;42.636;23.294;2022-09-13T02:56:08;5.80;;;5.30;;
42944;SDS011;28584;42.636;23.294;2022-09-13T03:01:17;5.90;;;5.10;;
42944;SDS011;28584;42.636;23.294;2022-09-13T03:03:45;6.47;;;5.85;;
42944;SDS011;28584;42.636;23.294;2022-09-13T03:06:11;6.43;;;5.50;;
42944;SDS011;28584;42.636;23.294;2022-09-13T03:08:37;6.97;;;5.80;;
42944;SDS011;28584;42.636;23.294;2022-09-13T03:11:24;8.02;;;6.35;;
42944;SDS011;28584;42.636;23.294;2022-09-13T03:14:07;6.95;;;5.47;;
42944;SDS011;28584;42.636;23.294;2022-09-13T03:30:39;5.10;;;4.57;;
42944;SDS011;28584;42.636;23.294;2022-09-13T03:33:15;6.32;;;4.43;;
42944;SDS011;28584;42.636;23.294;2022-09-13T03:35:56;7.60;;;5.00;;
42944;SDS011;28584;42.636;23.294;2022-09-13T03:38:38;6.13;;;4.28;;
42944;SDS011;28584;42.636;23.294;2022-09-13T03:41:09;7.18;;;4.30;;
42944;SDS011;28584;42.636;23.294;2022-09-13T03:46:08;5.55;;;4.93;;
42944;SDS011;28584;42.636;23.294;2022-09-13T03:48:39;4.80;;;4.40;;
42944;SDS011;28584;42.636;23.294;2022-09-13T03:51:07;5.40;;;4.80;;
42944;SDS011;28584;42.636;23.294;2022-09-13T03:53:34;6.05;;;4.45;;
42944;SDS011;28584;42.636;23.294;2022-09-13T03:56:12;4.65;;;4.25;;
42944;SDS011;28584;42.636;23.294;2022-09-13T03:58:41;6.75;;;4.13;;
42944;SDS011;28584;42.636;23.294;2022-09-13T04:01:07;6.03;;;4.15;;
42944;SDS011;28584;42.636;23.294;2022-09-13T04:03:35;6.65;;;4.65;;
42944;SDS011;28584;42.636;23.294;2022-09-13T04:06:01;5.70;;;3.80;;
42944;SDS011;28584;42.636;23.294;2022-09-13T04:08:27;6.90;;;4.60;;
42944;SDS011;28584;42.636;23.294;2022-09-13T04:10:52;4.68;;;4.13;;
42944;SDS011;28584;42.636;23.294;2022-09-13T04:13:18;5.45;;;4.20;;
42944;SDS011;28584;42.636;23.294;2022-09-13T04:15:45;4.80;;;4.40;;
42944;SDS011;28584;42.636;23.294;2022-09-13T04:18:10;4.82;;;3.88;;
42944;SDS011;28584;42.636;23.294;2022-09-13T04:20:36;6.30;;;4.45;;
42944;SDS011;28584;42.636;23.294;2022-09-13T04:23:01;4.93;;;3.70;;
42944;SDS011;28584;42.636;23.294;2022-09-13T04:25:27;5.20;;;4.18;;
42944;SDS011;28584;42.636;23.294;2022-09-13T04:27:53;7.50;;;4.55;;
42944;SDS011;28584;42.636;23.294;2022-09-13T04:30:19;8.70;;;4.30;;
42944;SDS011;28584;42.636;23.294;2022-09-13T04:32:45;4.88;;;3.78;;
42944;SDS011;28584;42.636;23.294;2022-09-13T04:35:10;4.30;;;3.90;;
42944;SDS011;28584;42.636;23.294;2022-09-13T04:37:36;4.50;;;4.10;;
42944;SDS011;28584;42.636;23.294;2022-09-13T04:40:02;4.90;;;3.80;;
42944;SDS011;28584;42.636;23.294;2022-09-13T04:42:29;6.28;;;4.20;;
42944;SDS011;28584;42.636;23.294;2022-09-13T04:44:54;3.85;;;3.55;;
42944;SDS011;28584;42.636;23.294;2022-09-13T04:47:19;7.90;;;4.03;;
42944;SDS011;28584;42.636;23.294;2022-09-13T04:49:45;4.32;;;3.63;;
42944;SDS011;28584;42.636;23.294;2022-09-13T04:52:12;3.72;;;3.35;;
42944;SDS011;28584;42.636;23.294;2022-09-13T04:54:38;4.28;;;3.83;;
42944;SDS011;28584;42.636;23.294;2022-09-13T04:57:03;4.15;;;3.17;;
42944;SDS011;28584;42.636;23.294;2022-09-13T04:59:28;6.45;;;3.45;;
42944;SDS011;28584;42.636;23.294;2022-09-13T05:01:54;3.60;;;3.30;;
42944;SDS011;28584;42.636;23.294;2022-09-13T05:04:20;5.05;;;3.42;;
42944;SDS011;28584;42.636;23.294;2022-09-13T05:06:45;6.38;;;3.20;;
42944;SDS011;28584;42.636;23.294;2022-09-13T05:09:12;4.63;;;3.25;;
42944;SDS011;28584;42.636;23.294;2022-09-13T05:11:39;4.43;;;3.03;;
42944;SDS011;28584;42.636;23.294;2022-09-13T05:14:05;3.72;;;3.00;;
42944;SDS011;28584;42.636;23.294;2022-09-13T05:16:32;4.15;;;2.70;;
42944;SDS011;28584;42.636;23.294;2022-09-13T05:18:58;3.13;;;2.88;;
42944;SDS011;28584;42.636;23.294;2022-09-13T05:21:24;4.05;;;2.80;;
42944;SDS011;28584;42.636;23.294;2022-09-13T05:23:52;3.92;;;2.90;;
42944;SDS011;28584;42.636;23.294;2022-09-13T05:26:18;4.70;;;3.17;;
42944;SDS011;28584;42.636;23.294;2022-09-13T05:28:46;4.20;;;2.83;;
42944;SDS011;28584;42.636;23.294;2022-09-13T05:31:14;3.05;;;2.75;;
42944;SDS011;28584;42.636;23.294;2022-09-13T05:33:42;4.00;;;2.80;;
42944;SDS011;28584;42.636;23.294;2022-09-13T05:36:09;4.25;;;3.10;;
42944;SDS011;28584;42.636;23.294;2022-09-13T05:38:34;4.10;;;2.88;;
42944;SDS011;28584;42.636;23.294;2022-09-13T05:41:00;3.63;;;3.33;;
42944;SDS011;28584;42.636;23.294;2022-09-13T05:43:28;4.07;;;2.90;;
42944;SDS011;28584;42.636;23.294;2022-09-13T05:48:30;4.03;;;3.10;;
42944;SDS011;28584;42.636;23.294;2022-09-13T05:51:02;4.53;;;3.28;;
42944;SDS011;28584;42.636;23.294;2022-09-13T05:53:32;3.05;;;2.85;;
42944;SDS011;28584;42.636;23.294;2022-09-13T05:55:58;5.10;;;2.70;;
42944;SDS011;28584;42.636;23.294;2022-09-13T05:58:24;4.38;;;2.80;;
42944;SDS011;28584;42.636;23.294;2022-09-13T06:00:54;5.15;;;3.33;;
42944;SDS011;28584;42.636;23.294;2022-09-13T06:03:20;6.18;;;2.90;;
42944;SDS011;28584;42.636;23.294;2022-09-13T06:05:46;4.55;;;2.90;;
42944;SDS011;28584;42.636;23.294;2022-09-13T06:08:12;4.57;;;3.10;;
42944;SDS011;28584;42.636;23.294;2022-09-13T06:10:37;2.83;;;2.58;;
42944;SDS011;28584;42.636;23.294;2022-09-13T06:13:03;7.95;;;3.35;;
42944;SDS011;28584;42.636;23.294;2022-09-13T06:15:28;3.22;;;2.40;;
42944;SDS011;28584;42.636;23.294;2022-09-13T06:17:53;4.30;;;3.00;;
42944;SDS011;28584;42.636;23.294;2022-09-13T06:20:19;3.08;;;2.88;;
42944;SDS011;28584;42.636;23.294;2022-09-13T06:22:46;3.72;;;2.47;;
42944;SDS011;28584;42.636;23.294;2022-09-13T06:25:12;3.22;;;2.92;;
42944;SDS011;28584;42.636;23.294;2022-09-13T06:27:37;6.65;;;3.20;;
42944;SDS011;28584;42.636;23.294;2022-09-13T06:30:03;3.15;;;2.85;;
42944;SDS011;28584;42.636;23.294;2022-09-13T06:32:29;4.20;;;2.63;;
42944;SDS011;28584;42.636;23.294;2022-09-13T06:34:54;3.97;;;3.50;;
42944;SDS011;28584;42.636;23.294;2022-09-13T06:37:20;5.50;;;3.28;;
42944;SDS011;28584;42.636;23.294;2022-09-13T06:39:46;3.53;;;3.10;;
42944;SDS011;28584;42.636;23.294;2022-09-13T06:42:11;8.55;;;4.10;;
42944;SDS011;28584;42.636;23.294;2022-09-13T06:44:37;3.28;;;2.97;;
42944;SDS011;28584;42.636;23.294;2022-09-13T06:47:02;3.95;;;3.50;;
42944;SDS011;28584;42.636;23.294;2022-09-13T06:49:28;6.13;;;3.30;;
42944;SDS011;28584;42.636;23.294;2022-09-13T06:51:55;5.78;;;3.05;;
42944;SDS011;28584;42.636;23.294;2022-09-13T06:54:21;3.30;;;3.00;;
42944;SDS011;28584;42.636;23.294;2022-09-13T06:56:46;4.78;;;3.00;;
42944;SDS011;28584;42.636;23.294;2022-09-13T06:59:11;3.10;;;2.80;;
42944;SDS011;28584;42.636;23.294;2022-09-13T07:01:38;4.03;;;2.45;;
42944;SDS011;28584;42.636;23.294;2022-09-13T07:06:31;3.65;;;2.83;;
42944;SDS011;28584;42.636;23.294;2022-09-13T07:18:50;3.22;;;2.92;;
42944;SDS011;28584;42.636;23.294;2022-09-13T07:21:18;4.55;;;3.35;;
42944;SDS011;28584;42.636;23.294;2022-09-13T07:23:44;3.20;;;2.90;;
42944;SDS011;28584;42.636;23.294;2022-09-13T07:26:10;4.05;;;2.95;;
42944;SDS011;28584;42.636;23.294;2022-09-13T07:28:39;2.85;;;2.60;;
42944;SDS011;28584;42.636;23.294;2022-09-13T07:31:17;2.72;;;2.50;;
42944;SDS011;28584;42.636;23.294;2022-09-13T07:33:44;3.33;;;2.65;;
42944;SDS011;28584;42.636;23.294;2022-09-13T07:36:10;3.80;;;3.13;;
42944;SDS011;28584;42.636;23.294;2022-09-13T07:38:37;4.65;;;3.00;;
42944;SDS011;28584;42.636;23.294;2022-09-13T07:41:04;3.92;;;2.85;;
42944;SDS011;28584;42.636;23.294;2022-09-13T07:43:33;3.38;;;2.40;;
42944;SDS011;28584;42.636;23.294;2022-09-13T07:46:03;3.13;;;2.08;;
42944;SDS011;28584;42.636;23.294;2022-09-13T07:48:31;6.60;;;2.42;;
42944;SDS011;28584;42.636;23.294;2022-09-13T07:51:02;2.75;;;2.45;;
42944;SDS011;28584;42.636;23.294;2022-09-13T07:53:28;2.70;;;2.50;;
42944;SDS011;28584;42.636;23.294;2022-09-13T07:55:58;3.05;;;2.67;;
42944;SDS011;28584;42.636;23.294;2022-09-13T07:58:28;6.13;;;2.40;;
42944;SDS011;28584;42.636;23.294;2022-09-13T08:00:53;3.17;;;2.58;;
42944;SDS011;28584;42.636;23.294;2022-09-13T08:03:21;2.58;;;2.38;;
42944;SDS011;28584;42.636;23.294;2022-09-13T08:05:46;9.60;;;2.85;;
42944;SDS011;28584;42.636;23.294;2022-09-13T08:08:12;2.55;;;1.95;;
42944;SDS011;28584;42.636;23.294;2022-09-13T08:10:37;4.38;;;2.65;;
42944;SDS011;28584;42.636;23.294;2022-09-13T08:13:02;2.60;;;2.40;;
42944;SDS011;28584;42.636;23.294;2022-09-13T08:15:28;2.75;;;2.33;;
42944;SDS011;28584;42.636;23.294;2022-09-13T08:17:53;2.53;;;2.33;;
42944;SDS011;28584;42.636;23.294;2022-09-13T08:20:19;2.75;;;2.10;;
42944;SDS011;28584;42.636;23.294;2022-09-13T08:22:45;2.72;;;2.45;;
42944;SDS011;28584;42.636;23.294;2022-09-13T08:25:10;4.28;;;2.65;;
42944;SDS011;28584;42.636;23.294;2022-09-13T08:27:36;3.50;;;2.08;;
42944;SDS011;28584;42.636;23.294;2022-09-13T08:30:01;3.03;;;2.72;;
42944;SDS011;28584;42.636;23.294;2022-09-13T08:32:27;2.35;;;2.08;;
42944;SDS011;28584;42.636;23.294;2022-09-13T08:34:52;2.03;;;1.80;;
42944;SDS011;28584;42.636;23.294;2022-09-13T08:37:18;3.88;;;2.10;;
42944;SDS011;28584;42.636;23.294;2022-09-13T08:39:43;1.88;;;1.77;;
42944;SDS011;28584;42.636;23.294;2022-09-13T08:42:34;6.93;;;2.08;;
42944;SDS011;28584;42.636;23.294;2022-09-13T08:45:03;4.50;;;2.00;;
42944;SDS011;28584;42.636;23.294;2022-09-13T08:50:33;2.03;;;1.83;;
42944;SDS011;28584;42.636;23.294;2022-09-13T08:55:48;1.77;;;1.60;;
42944;SDS011;28584;42.636;23.294;2022-09-13T08:58:37;2.50;;;1.60;;
42944;SDS011;28584;42.636;23.294;2022-09-13T09:04:05;1.65;;;1.55;;
42944;SDS011;28584;42.636;23.294;2022-09-13T09:06:38;1.25;;;1.15;;
42944;SDS011;28584;42.636;23.294;2022-09-13T09:09:09;1.58;;;1.48;;
42944;SDS011;28584;42.636;23.294;2022-09-13T09:14:23;2.42;;;1.80;;
42944;SDS011;28584;42.636;23.294;2022-09-13T09:16:59;1.48;;;1.38;;
42944;SDS011;28584;42.636;23.294;2022-09-13T09:19:32;2.85;;;1.60;;
42944;SDS011;28584;42.636;23.294;2022-09-13T09:22:02;2.88;;;1.65;;
42944;SDS011;28584;42.636;23.294;2022-09-13T09:24:30;1.80;;;1.50;;
42944;SDS011;28584;42.636;23.294;2022-09-13T09:27:00;1.77;;;1.65;;
42944;SDS011;28584;42.636;23.294;2022-09-13T09:29:32;2.30;;;1.38;;
42944;SDS011;28584;42.636;23.294;2022-09-13T09:37:33;3.55;;;2.00;;
42944;SDS011;28584;42.636;23.294;2022-09-13T09:40:02;1.70;;;1.60;;
42944;SDS011;28584;42.636;23.294;2022-09-13T09:42:43;1.80;;;1.70;;
42944;SDS011;28584;42.636;23.294;2022-09-13T09:47:48;2.30;;;2.00;;
42944;SDS011;28584;42.636;23.294;2022-09-13T09:50:20;1.80;;;1.70;;
42944;SDS011;28584;42.636;23.294;2022-09-13T09:55:44;2.38;;;1.67;;
42944;SDS011;28584;42.636;23.294;2022-09-13T09:58:12;1.50;;;1.40;;
42944;SDS011;28584;42.636;23.294;2022-09-13T10:00:52;1.83;;;1.73;;
42944;SDS011;28584;42.636;23.294;2022-09-13T10:03:23;2.00;;;1.70;;
42944;SDS011;28584;42.636;23.294;2022-09-13T10:06:02;1.50;;;1.40;;
42944;SDS011;28584;42.636;23.294;2022-09-13T10:11:42;1.98;;;1.85;;
42944;SDS011;28584;42.636;23.294;2022-09-13T10:14:34;3.80;;;1.90;;
42944;SDS011;28584;42.636;23.294;2022-09-13T10:19:56;4.18;;;1.90;;
42944;SDS011;28584;42.636;23.294;2022-09-13T10:22:23;1.63;;;1.52;;
42944;SDS011;28584;42.636;23.294;2022-09-13T10:24:50;1.80;;;1.70;;
42944;SDS011;28584;42.636;23.294;2022-09-13T10:27:28;3.78;;;1.67;;
42944;SDS011;28584;42.636;23.294;2022-09-13T10:29:55;1.73;;;1.63;;
42944;SDS011;28584;42.636;23.294;2022-09-13T10:32:25;2.83;;;1.70;;
42944;SDS011;28584;42.636;23.294;2022-09-13T10:34:52;2.78;;;1.80;;
42944;SDS011;28584;42.636;23.294;2022-09-13T10:37:25;1.90;;;1.80;;
42944;SDS011;28584;42.636;23.294;2022-09-13T10:40:05;3.38;;;1.88;;
42944;SDS011;28584;42.636;23.294;2022-09-13T10:42:37;1.80;;;1.70;;
42944;SDS011;28584;42.636;23.294;2022-09-13T10:47:31;2.05;;;1.85;;
42944;SDS011;28584;42.636;23.294;2022-09-13T10:52:41;4.97;;;2.13;;
42944;SDS011;28584;42.636;23.294;2022-09-13T10:57:47;3.22;;;1.85;;
42944;SDS011;28584;42.636;23.294;2022-09-13T11:00:15;2.67;;;2.28;;
42944;SDS011;28584;42.636;23.294;2022-09-13T11:46:55;1.80;;;1.70;;
42944;SDS011;28584;42.636;23.294;2022-09-13T11:57:04;2.20;;;1.80;;
42944;SDS011;28584;42.636;23.294;2022-09-13T12:00:17;4.25;;;1.80;;
42944;SDS011;28584;42.636;23.294;2022-09-13T12:05:00;1.65;;;1.55;;
42944;SDS011;28584;42.636;23.294;2022-09-13T12:07:33;1.67;;;1.58;;
42944;SDS011;28584;42.636;23.294;2022-09-13T12:13:20;3.38;;;1.60;;
42944;SDS011;28584;42.636;23.294;2022-09-13T12:15:54;1.98;;;1.55;;
42944;SDS011;28584;42.636;23.294;2022-09-13T12:18:25;1.55;;;1.45;;
42944;SDS011;28584;42.636;23.294;2022-09-13T12:23:42;2.53;;;1.52;;
42944;SDS011;28584;42.636;23.294;2022-09-13T12:26:21;3.33;;;1.73;;
42944;SDS011;28584;42.636;23.294;2022-09-13T12:28:58;4.78;;;1.70;;
42944;SDS011;28584;42.636;23.294;2022-09-13T12:31:31;1.88;;;1.60;;
42944;SDS011;28584;42.636;23.294;2022-09-13T12:33:56;2.35;;;1.85;;
42944;SDS011;28584;42.636;23.294;2022-09-13T12:36:39;2.05;;;1.58;;
42944;SDS011;28584;42.636;23.294;2022-09-13T12:59:30;4.10;;;1.65;;
42944;SDS011;28584;42.636;23.294;2022-09-13T13:04:52;3.10;;;1.73;;
42944;SDS011;28584;42.636;23.294;2022-09-13T13:07:22;4.68;;;1.85;;
42944;SDS011;28584;42.636;23.294;2022-09-13T13:09:49;2.35;;;1.90;;
42944;SDS011;28584;42.636;23.294;2022-09-13T13:12:50;1.92;;;1.80;;
42944;SDS011;28584;42.636;23.294;2022-09-13T13:33:53;4.78;;;2.00;;
42944;SDS011;28584;42.636;23.294;2022-09-13T13:36:25;4.03;;;1.80;;
42944;SDS011;28584;42.636;23.294;2022-09-13T13:38:59;3.33;;;1.67;;
42944;SDS011;28584;42.636;23.294;2022-09-13T13:44:01;2.30;;;1.88;;
42944;SDS011;28584;42.636;23.294;2022-09-13T13:57:36;4.45;;;3.40;;
42944;SDS011;28584;42.636;23.294;2022-09-13T14:19:17;4.15;;;2.80;;
42944;SDS011;28584;42.636;23.294;2022-09-13T14:24:40;4.80;;;2.38;;
42944;SDS011;28584;42.636;23.294;2022-09-13T14:27:21;2.50;;;1.98;;
42944;SDS011;28584;42.636;23.294;2022-09-13T14:29:56;3.55;;;2.35;;
42944;SDS011;28584;42.636;23.294;2022-09-13T14:32:25;2.28;;;1.90;;
42944;SDS011;28584;42.636;23.294;2022-09-13T14:35:00;1.90;;;1.80;;
42944;SDS011;28584;42.636;23.294;2022-09-13T14:37:32;2.08;;;1.98;;
42944;SDS011;28584;42.636;23.294;2022-09-13T14:42:25;2.58;;;2.38;;
42944;SDS011;28584;42.636;23.294;2022-09-13T14:44:51;2.17;;;2.08;;
42944;SDS011;28584;42.636;23.294;2022-09-13T14:49:49;3.15;;;2.30;;
42944;SDS011;28584;42.636;23.294;2022-09-13T14:55:13;5.07;;;2.35;;
42944;SDS011;28584;42.636;23.294;2022-09-13T14:57:45;7.13;;;1.98;;
42944;SDS011;28584;42.636;23.294;2022-09-13T15:00:17;3.88;;;1.85;;
42944;SDS011;28584;42.636;23.294;2022-09-13T15:02:49;2.55;;;2.33;;
42944;SDS011;28584;42.636;23.294;2022-09-13T15:05:18;2.47;;;2.28;;
42944;SDS011;28584;42.636;23.294;2022-09-13T15:07:47;3.47;;;2.20;;
42944;SDS011;28584;42.636;23.294;2022-09-13T15:13:15;3.75;;;2.70;;
42944;SDS011;28584;42.636;23.294;2022-09-13T15:15:35;2.15;;;1.95;;
42944;SDS011;28584;42.636;23.294;2022-09-13T15:26:23;2.20;;;2.10;;
42944;SDS011;28584;42.636;23.294;2022-09-13T15:28:53;2.35;;;1.83;;
42944;SDS011;28584;42.636;23.294;2022-09-13T15:31:28;2.78;;;2.58;;
42944;SDS011;28584;42.636;23.294;2022-09-13T15:34:11;2.20;;;2.00;;
42944;SDS011;28584;42.636;23.294;2022-09-13T15:36:46;2.00;;;1.90;;
42944;SDS011;28584;42.636;23.294;2022-09-13T15:39:17;2.80;;;2.10;;
42944;SDS011;28584;42.636;23.294;2022-09-13T15:41:57;2.67;;;2.25;;
42944;SDS011;28584;42.636;23.294;2022-09-13T15:44:25;2.35;;;2.20;;
42944;SDS011;28584;42.636;23.294;2022-09-13T15:46:52;2.17;;;2.08;;
42944;SDS011;28584;42.636;23.294;2022-09-13T15:49:20;2.75;;;2.50;;
42944;SDS011;28584;42.636;23.294;2022-09-13T15:51:55;2.55;;;2.40;;
42944;SDS011;28584;42.636;23.294;2022-09-13T15:54:30;2.38;;;2.20;;
42944;SDS011;28584;42.636;23.294;2022-09-13T15:57:07;2.67;;;2.20;;
42944;SDS011;28584;42.636;23.294;2022-09-13T15:59:34;2.92;;;2.30;;
42944;SDS011;28584;42.636;23.294;2022-09-13T16:02:00;2.40;;;2.20;;
42944;SDS011;28584;42.636;23.294;2022-09-13T16:04:38;2.08;;;1.98;;
42944;SDS011;28584;42.636;23.294;2022-09-13T16:07:03;2.80;;;2.60;;
42944;SDS011;28584;42.636;23.294;2022-09-13T16:09:28;3.22;;;2.15;;
42944;SDS011;28584;42.636;23.294;2022-09-13T16:11:54;2.70;;;2.50;;
42944;SDS011;28584;42.636;23.294;2022-09-13T16:14:19;3.00;;;2.40;;
42944;SDS011;28584;42.636;23.294;2022-09-13T16:16:45;3.00;;;2.70;;
42944;SDS011;28584;42.636;23.294;2022-09-13T16:19:15;2.42;;;2.22;;
42944;SDS011;28584;42.636;23.294;2022-09-13T16:21:43;2.50;;;2.20;;
42944;SDS011;28584;42.636;23.294;2022-09-13T16:24:09;2.35;;;2.15;;
42944;SDS011;28584;42.636;23.294;2022-09-13T16:26:34;2.92;;;2.60;;
42944;SDS011;28584;42.636;23.294;2022-09-13T16:29:00;2.50;;;2.33;;
42944;SDS011;28584;42.636;23.294;2022-09-13T16:31:26;2.90;;;2.70;;
42944;SDS011;28584;42.636;23.294;2022-09-13T16:33:51;4.40;;;2.60;;
42944;SDS011;28584;42.636;23.294;2022-09-13T16:36:16;3.22;;;2.80;;
42944;SDS011;28584;42.636;23.294;2022-09-13T16:38:42;2.90;;;2.70;;
42944;SDS011;28584;42.636;23.294;2022-09-13T16:41:08;2.88;;;2.67;;
42944;SDS011;28584;42.636;23.294;2022-09-13T16:43:33;4.13;;;2.28;;
42944;SDS011;28584;42.636;23.294;2022-09-13T16:46:04;3.60;;;2.78;;
42944;SDS011;28584;42.636;23.294;2022-09-13T16:48:33;3.78;;;2.95;;
42944;SDS011;28584;42.636;23.294;2022-09-13T16:51:06;4.25;;;2.60;;
42944;SDS011;28584;42.636;23.294;2022-09-13T16:53:34;3.05;;;2.85;;
42944;SDS011;28584;42.636;23.294;2022-09-13T16:56:10;3.97;;;3.20;;
42944;SDS011;28584;42.636;23.294;2022-09-13T16:58:38;3.50;;;3.20;;
42944;SDS011;28584;42.636;23.294;2022-09-13T17:01:06;3.08;;;2.88;;
42944;SDS011;28584;42.636;23.294;2022-09-13T17:03:33;3.33;;;3.00;;
42944;SDS011;28584;42.636;23.294;2022-09-13T17:06:01;3.53;;;3.08;;
42944;SDS011;28584;42.636;23.294;2022-09-13T17:08:28;4.20;;;3.13;;
42944;SDS011;28584;42.636;23.294;2022-09-13T17:10:54;4.70;;;3.45;;
42944;SDS011;28584;42.636;23.294;2022-09-13T17:13:19;4.05;;;3.38;;
42944;SDS011;28584;42.636;23.294;2022-09-13T17:15:45;4.47;;;4.07;;
42944;SDS011;28584;42.636;23.294;2022-09-13T17:18:10;4.82;;;3.50;;
42944;SDS011;28584;42.636;23.294;2022-09-13T17:20:41;3.70;;;3.40;;
42944;SDS011;28584;42.636;23.294;2022-09-13T17:23:08;3.55;;;3.25;;
42944;SDS011;28584;42.636;23.294;2022-09-13T17:25:33;3.65;;;3.30;;
42944;SDS011;28584;42.636;23.294;2022-09-13T17:27:58;3.40;;;3.10;;
42944;SDS011;28584;42.636;23.294;2022-09-13T17:30:24;3.90;;;3.60;;
42944;SDS011;28584;42.636;23.294;2022-09-13T17:32:49;4.25;;;3.63;;
42944;SDS011;28584;42.636;23.294;2022-09-13T17:35:15;3.45;;;3.15;;
42944;SDS011;28584;42.636;23.294;2022-09-13T17:37:41;4.72;;;3.03;;
42944;SDS011;28584;42.636;23.294;2022-09-13T17:40:06;3.33;;;3.13;;
42944;SDS011;28584;42.636;23.294;2022-09-13T17:42:32;3.78;;;3.00;;
42944;SDS011;28584;42.636;23.294;2022-09-13T17:44:57;3.45;;;3.15;;
42944;SDS011;28584;42.636;23.294;2022-09-13T17:47:23;3.72;;;3.40;;
42944;SDS011;28584;42.636;23.294;2022-09-13T17:49:48;3.65;;;3.30;;
42944;SDS011;28584;42.636;23.294;2022-09-13T17:52:13;3.50;;;3.20;;
42944;SDS011;28584;42.636;23.294;2022-09-13T17:54:39;3.53;;;3.20;;
42944;SDS011;28584;42.636;23.294;2022-09-13T17:57:04;3.83;;;3.45;;
42944;SDS011;28584;42.636;23.294;2022-09-13T17:59:30;3.25;;;3.05;;
42944;SDS011;28584;42.636;23.294;2022-09-13T18:01:56;3.45;;;3.22;;
42944;SDS011;28584;42.636;23.294;2022-09-13T18:04:24;3.58;;;3.28;;
42944;SDS011;28584;42.636;23.294;2022-09-13T18:06:51;3.40;;;3.13;;
42944;SDS011;28584;42.636;23.294;2022-09-13T18:09:17;3.30;;;3.05;;
42944;SDS011;28584;42.636;23.294;2022-09-13T18:11:43;3.97;;;3.67;;
42944;SDS011;28584;42.636;23.294;2022-09-13T18:14:10;5.38;;;3.42;;
42944;SDS011;28584;42.636;23.294;2022-09-13T18:16:37;3.33;;;3.03;;
42944;SDS011;28584;42.636;23.294;2022-09-13T18:19:02;5.10;;;3.40;;
42944;SDS011;28584;42.636;23.294;2022-09-13T18:21:28;4.85;;;3.33;;
42944;SDS011;28584;42.636;23.294;2022-09-13T18:23:54;3.75;;;3.30;;
42944;SDS011;28584;42.636;23.294;2022-09-13T18:26:26;3.58;;;3.33;;
42944;SDS011;28584;42.636;23.294;2022-09-13T18:28:59;5.50;;;4.93;;
42944;SDS011;28584;42.636;23.294;2022-09-13T18:31:27;7.43;;;5.15;;
42944;SDS011;28584;42.636;23.294;2022-09-13T18:33:54;3.70;;;3.40;;
42944;SDS011;28584;42.636;23.294;2022-09-13T18:36:22;4.40;;;3.80;;
42944;SDS011;28584;42.636;23.294;2022-09-13T18:38:48;4.38;;;3.97;;
42944;SDS011;28584;42.636;23.294;2022-09-13T18:41:18;3.88;;;3.58;;
42944;SDS011;28584;42.636;23.294;2022-09-13T18:43:47;9.30;;;6.35;;
42944;SDS011;28584;42.636;23.294;2022-09-13T18:46:18;9.63;;;6.90;;
42944;SDS011;28584;42.636;23.294;2022-09-13T18:48:48;4.47;;;4.07;;
42944;SDS011;28584;42.636;23.294;2022-09-13T18:51:17;5.82;;;3.45;;
42944;SDS011;28584;42.636;23.294;2022-09-13T18:53:45;3.70;;;3.40;;
42944;SDS011;28584;42.636;23.294;2022-09-13T18:56:12;3.83;;;3.42;;
42944;SDS011;28584;42.636;23.294;2022-09-13T18:58:39;3.10;;;2.90;;
42944;SDS011;28584;42.636;23.294;2022-09-13T19:03:34;3.83;;;3.10;;
42944;SDS011;28584;42.636;23.294;2022-09-13T19:06:08;3.30;;;3.05;;
42944;SDS011;28584;42.636;23.294;2022-09-13T19:08:37;4.35;;;3.00;;
42944;SDS011;28584;42.636;23.294;2022-09-13T19:11:04;4.10;;;2.78;;
42944;SDS011;28584;42.636;23.294;2022-09-13T19:13:30;3.20;;;3.00;;